Главная страница
METAR-TAF:

METAR-TAF

Аэропорты :

Bedford, Пенсильвания, США

широта: 40-05-10N, долгота: 078-30-49W, высота над уровнем моря: 354 м

Текущие метеонаблюдения

Эта сводка был подготовлена 18 минут назад, в 15:35 UTC
Ветер 14 Узел от западный с порывами до 24 Узел
Температура 0°C
Влажность 69%
Давление 1020 hPa
Видимость: 16.1 км
Сплошная облачность на высоте 2500 фута

METAR: KHMZ 161535Z AUTO 27014G24KT 10SM OVC025 00/M05 A3013 RMK AO2 T00021049

Время: 10:53 (15:53 UTC)


TAF: отсутствует

Метеонаблюдения и прогнозы для более 4000 аэропортов (сводки METAR и TAF).

Имеющиеся станции представлены на карте желтыми и красными точками.

Чтобы увидеть название станции, наведите на нее мышь.

Затем щелкните, чтобы увидеть метеонаблюдения и метеопрогнозы.

Управление картой: чтобы увеличить масштаб, щелкните зеленые кнопки с черным крестиком; чтобы уменьшить масштаб, щелкните зеленую кнопку с тире; для просмотра соседних карт щелкайте зеленые стрелки.


METAR-TAF: